Time,TemperatureF,DewpointF,PressureIn,WindDirection,WindDirectionDegrees,WindSpeedMPH,WindSpeedGustMPH,Humidity,HourlyPrecipIn,Conditions,Clouds,dailyrainin,SoftwareType,DateUTC
2013-03-26 00:02:00,43.0,32.0,30.37,NW,323,0.0,0.0,64,0.00,,,0.00,,2013-03-26 05:02:00,
2013-03-26 00:12:00,43.0,32.0,30.37,NW,323,0.0,0.0,64,0.00,,,0.00,,2013-03-26 05:12:00,
2013-03-26 00:22:00,42.0,31.0,30.38,NW,323,0.0,0.0,65,0.00,,,0.00,,2013-03-26 05:22:00,
2013-03-26 00:32:00,42.0,30.0,30.38,NW,323,0.0,0.0,63,0.00,,,0.00,,2013-03-26 05:32:00,
2013-03-26 00:42:00,42.0,30.0,30.38,NW,323,0.0,0.0,63,0.00,,,0.00,,2013-03-26 05:42:00,
2013-03-26 00:52:00,43.0,26.0,30.39,NW,323,0.0,1.0,51,0.00,,,0.00,,2013-03-26 05:52:00,
2013-03-26 01:02:00,44.0,25.0,30.39,NNE,15,0.0,2.0,47,0.00,,,0.00,,2013-03-26 06:02:00,
2013-03-26 01:12:00,44.0,25.0,30.39,NNE,15,0.0,2.0,47,0.00,,,0.00,,2013-03-26 06:12:00,
2013-03-26 01:22:00,45.0,23.0,30.39,NNE,15,0.0,1.0,41,0.00,,,0.00,,2013-03-26 06:22:00,
2013-03-26 01:32:00,45.0,23.0,30.39,NNE,17,0.0,1.0,41,0.00,,,0.00,,2013-03-26 06:32:00,
2013-03-26 01:42:00,45.0,23.0,30.39,NNE,17,0.0,1.0,41,0.00,,,0.00,,2013-03-26 06:42:00,
2013-03-26 01:52:00,45.0,23.0,30.40,NNE,30,0.0,1.0,42,0.00,,,0.00,,2013-03-26 06:52:00,
2013-03-26 02:02:00,45.0,24.0,30.40,NNE,30,0.0,1.0,43,0.00,,,0.00,,2013-03-26 07:02:00,
2013-03-26 02:12:00,45.0,24.0,30.40,NNE,30,0.0,1.0,43,0.00,,,0.00,,2013-03-26 07:12:00,
2013-03-26 02:22:00,44.0,23.0,30.40,NNE,30,0.0,1.0,43,0.00,,,0.00,,2013-03-26 07:22:00,
2013-03-26 02:33:00,44.0,23.0,30.40,NNE,30,0.0,1.0,44,0.00,,,0.00,,2013-03-26 07:33:00,
2013-03-26 02:42:00,44.0,23.0,30.40,NNE,30,0.0,1.0,44,0.00,,,0.00,,2013-03-26 07:42:00,
2013-03-26 02:53:00,43.0,24.0,30.41,NNE,30,0.0,0.0,47,0.00,,,0.00,,2013-03-26 07:53:00,
2013-03-26 03:02:00,43.0,25.0,30.41,NNE,30,0.0,1.0,48,0.00,,,0.00,,2013-03-26 08:02:00,
2013-03-26 03:12:00,43.0,25.0,30.41,NNE,30,0.0,1.0,48,0.00,,,0.00,,2013-03-26 08:12:00,
2013-03-26 03:22:00,42.0,25.0,30.40,NNE,30,0.0,0.0,50,0.00,,,0.00,,2013-03-26 08:22:00,
2013-03-26 03:32:00,42.0,26.0,30.40,NNE,30,0.0,0.0,53,0.00,,,0.00,,2013-03-26 08:32:00,
2013-03-26 03:42:00,42.0,26.0,30.40,NNE,30,0.0,0.0,53,0.00,,,0.00,,2013-03-26 08:42:00,
2013-03-26 03:52:00,41.0,25.0,30.40,NNE,30,0.0,0.0,52,0.00,,,0.00,,2013-03-26 08:52:00,
2013-03-26 04:02:00,41.0,25.0,30.40,NNE,30,0.0,1.0,52,0.00,,,0.00,,2013-03-26 09:02:00,
2013-03-26 04:12:00,41.0,25.0,30.40,NNE,30,0.0,1.0,52,0.00,,,0.00,,2013-03-26 09:12:00,
2013-03-26 04:22:00,40.0,24.0,30.40,NNE,30,0.0,0.0,52,0.00,,,0.00,,2013-03-26 09:22:00,
2013-03-26 04:33:00,40.0,25.0,30.40,NNE,30,0.0,0.0,54,0.00,,,0.00,,2013-03-26 09:33:00,
2013-03-26 04:42:00,40.0,25.0,30.40,NNE,30,0.0,0.0,54,0.00,,,0.00,,2013-03-26 09:42:00,
2013-03-26 04:52:00,39.0,27.0,30.40,NNE,30,0.0,0.0,63,0.00,,,0.00,,2013-03-26 09:52:00,
2013-03-26 05:02:00,39.0,28.0,30.40,NNE,30,0.0,0.0,65,0.00,,,0.00,,2013-03-26 10:02:00,
2013-03-26 05:12:00,39.0,28.0,30.40,NNE,30,0.0,0.0,65,0.00,,,0.00,,2013-03-26 10:12:00,
2013-03-26 05:22:00,38.0,28.0,30.40,NNE,30,0.0,0.0,67,0.00,,,0.00,,2013-03-26 10:22:00,
2013-03-26 05:32:00,37.0,27.0,30.40,NNE,30,0.0,0.0,68,0.00,,,0.00,,2013-03-26 10:32:00,
2013-03-26 05:42:00,37.0,27.0,30.40,NNE,30,0.0,0.0,68,0.00,,,0.00,,2013-03-26 10:42:00,
2013-03-26 05:53:00,37.0,28.0,30.41,NNE,30,0.0,1.0,69,0.00,,,0.00,,2013-03-26 10:53:00,
2013-03-26 06:03:00,36.0,27.0,30.42,NNE,30,0.0,0.0,70,0.00,,,0.00,,2013-03-26 11:03:00,
2013-03-26 06:12:00,36.0,27.0,30.42,NNE,30,0.0,0.0,70,0.00,,,0.00,,2013-03-26 11:12:00,
2013-03-26 06:22:00,36.0,28.0,30.42,NNE,30,0.0,0.0,71,0.00,,,0.00,,2013-03-26 11:22:00,
2013-03-26 06:32:00,36.0,28.0,30.42,NNE,30,0.0,0.0,71,0.00,,,0.00,,2013-03-26 11:32:00,
2013-03-26 06:42:00,36.0,28.0,30.42,NNE,30,0.0,0.0,71,0.00,,,0.00,,2013-03-26 11:42:00,
2013-03-26 06:52:00,35.0,26.0,30.43,NNE,30,0.0,0.0,70,0.00,,,0.00,,2013-03-26 11:52:00,
2013-03-26 07:03:00,35.0,26.0,30.43,NNE,30,0.0,0.0,70,0.00,,,0.00,,2013-03-26 12:03:00,
2013-03-26 07:12:00,35.0,27.0,30.43,NNE,30,0.0,0.0,71,0.00,,,0.00,,2013-03-26 12:12:00,
2013-03-26 07:22:00,35.0,28.0,30.45,NNE,30,0.0,0.0,76,0.00,,,0.00,,2013-03-26 12:22:00,
2013-03-26 07:32:00,34.0,28.0,30.45,NNE,30,0.0,0.0,79,0.00,,,0.00,,2013-03-26 12:32:00,
2013-03-26 07:42:00,34.0,28.0,30.45,NNE,30,0.0,0.0,79,0.00,,,0.00,,2013-03-26 12:42:00,
2013-03-26 07:52:00,33.0,28.0,30.45,NE,42,0.0,0.0,81,0.00,,,0.00,,2013-03-26 12:52:00,
2013-03-26 08:03:00,33.0,28.0,30.46,NE,42,0.0,0.0,82,0.00,,,0.00,,2013-03-26 13:03:00,
2013-03-26 08:12:00,33.0,28.0,30.46,NE,42,0.0,0.0,82,0.00,,,0.00,,2013-03-26 13:12:00,
2013-03-26 08:22:00,33.0,29.0,30.47,NE,42,0.0,0.0,84,0.00,,,0.00,,2013-03-26 13:22:00,
2013-03-26 08:32:00,33.0,29.0,30.47,NE,42,0.0,0.0,85,0.00,,,0.00,,2013-03-26 13:32:00,
2013-03-26 08:42:00,33.0,29.0,30.47,NE,42,0.0,0.0,85,0.00,,,0.00,,2013-03-26 13:42:00,
2013-03-26 08:52:00,34.0,30.0,30.48,NE,42,0.0,0.0,86,0.00,,,0.00,,2013-03-26 13:52:00,
2013-03-26 09:02:00,35.0,31.0,30.48,ENE,63,0.0,1.0,86,0.00,,,0.00,,2013-03-26 14:02:00,
2013-03-26 09:11:00,35.0,31.0,30.48,ENE,63,0.0,1.0,86,0.00,,,0.00,,2013-03-26 14:11:00,
2013-03-26 09:22:00,39.0,31.0,30.49,ESE,118,0.0,1.0,72,0.00,,,0.00,,2013-03-26 14:22:00,
2013-03-26 09:32:00,41.0,32.0,30.49,ESE,118,0.0,1.0,69,0.00,,,0.00,,2013-03-26 14:32:00,
2013-03-26 09:42:00,41.0,32.0,30.49,ESE,118,0.0,1.0,69,0.00,,,0.00,,2013-03-26 14:42:00,
2013-03-26 09:53:00,46.0,29.0,30.49,East,92,0.0,1.0,52,0.00,,,0.00,,2013-03-26 14:53:00,
2013-03-26 10:02:00,48.0,30.0,30.50,NE,37,0.0,1.0,50,0.00,,,0.00,,2013-03-26 15:02:00,
2013-03-26 10:12:00,48.0,30.0,30.50,NE,37,0.0,1.0,50,0.00,,,0.00,,2013-03-26 15:12:00,
2013-03-26 10:22:00,50.0,29.0,30.50,NE,40,0.0,2.0,45,0.00,,,0.00,,2013-03-26 15:22:00,
2013-03-26 10:33:00,50.0,27.0,30.50,NE,47,0.0,2.0,41,0.00,,,0.00,,2013-03-26 15:33:00,
2013-03-26 10:43:00,50.0,27.0,30.50,NE,47,0.0,2.0,41,0.00,,,0.00,,2013-03-26 15:43:00,
2013-03-26 10:53:00,51.0,26.0,30.50,NNW,333,0.0,4.0,37,0.00,,,0.00,,2013-03-26 15:53:00,
2013-03-26 11:02:00,52.0,28.0,30.50,NE,56,0.0,2.0,39,0.00,,,0.00,,2013-03-26 16:02:00,
2013-03-26 11:12:00,52.0,28.0,30.50,NE,56,0.0,2.0,39,0.00,,,0.00,,2013-03-26 16:12:00,
2013-03-26 11:22:00,54.0,28.0,30.50,NNE,16,0.0,2.0,37,0.00,,,0.00,,2013-03-26 16:22:00,
2013-03-26 11:32:00,55.0,29.0,30.49,North,351,0.0,3.0,37,0.00,,,0.00,,2013-03-26 16:32:00,
2013-03-26 11:42:00,55.0,29.0,30.49,North,351,0.0,3.0,37,0.00,,,0.00,,2013-03-26 16:42:00,
2013-03-26 11:53:00,56.0,28.0,30.49,NE,38,0.0,6.0,34,0.00,,,0.00,,2013-03-26 16:53:00,
2013-03-26 12:02:00,56.0,28.0,30.48,NW,309,1.0,7.0,34,0.00,,,0.00,,2013-03-26 17:02:00,
2013-03-26 12:12:00,56.0,28.0,30.48,NW,309,1.0,7.0,34,0.00,,,0.00,,2013-03-26 17:12:00,
2013-03-26 12:23:00,57.0,25.0,30.48,NNW,333,1.0,6.0,29,0.00,,,0.00,,2013-03-26 17:23:00,
2013-03-26 12:32:00,57.0,24.0,30.48,NE,34,2.0,5.0,28,0.00,,,0.00,,2013-03-26 17:32:00,
2013-03-26 12:42:00,57.0,24.0,30.48,NE,34,2.0,5.0,28,0.00,,,0.00,,2013-03-26 17:42:00,
2013-03-26 12:53:00,58.0,28.0,30.46,North,5,0.0,6.0,31,0.00,,,0.00,,2013-03-26 17:53:00,
2013-03-26 13:02:00,58.0,27.0,30.46,NNE,18,1.0,4.0,30,0.00,,,0.00,,2013-03-26 18:02:00,
2013-03-26 13:12:00,58.0,27.0,30.46,NNE,18,1.0,4.0,30,0.00,,,0.00,,2013-03-26 18:12:00,
2013-03-26 13:23:00,58.0,25.0,30.45,NW,319,1.0,8.0,28,0.00,,,0.00,,2013-03-26 18:23:00,
2013-03-26 13:33:00,59.0,26.0,30.45,North,349,1.0,4.0,28,0.00,,,0.00,,2013-03-26 18:33:00,
2013-03-26 13:42:00,59.0,26.0,30.45,North,349,1.0,4.0,28,0.00,,,0.00,,2013-03-26 18:42:00,
2013-03-26 13:53:00,60.0,24.0,30.44,WNW,293,2.0,6.0,25,0.00,,,0.00,,2013-03-26 18:53:00,
2013-03-26 14:02:00,60.0,23.0,30.43,NNE,30,1.0,7.0,24,0.00,,,0.00,,2013-03-26 19:02:00,
2013-03-26 14:12:00,60.0,23.0,30.43,NNE,30,1.0,7.0,24,0.00,,,0.00,,2013-03-26 19:12:00,
2013-03-26 14:22:00,62.0,26.0,30.42,NE,53,1.0,3.0,25,0.00,,,0.00,,2013-03-26 19:22:00,
2013-03-26 14:32:00,63.0,27.0,30.41,North,360,2.0,3.0,25,0.00,,,0.00,,2013-03-26 19:32:00,
2013-03-26 14:42:00,63.0,27.0,30.41,North,360,2.0,3.0,25,0.00,,,0.00,,2013-03-26 19:42:00,
2013-03-26 14:53:00,63.0,27.0,30.40,ENE,63,1.0,5.0,25,0.00,,,0.00,,2013-03-26 19:53:00,
2013-03-26 15:02:00,64.0,24.0,30.40,North,351,2.0,6.0,22,0.00,,,0.00,,2013-03-26 20:02:00,
2013-03-26 15:12:00,64.0,24.0,30.40,North,351,2.0,6.0,22,0.00,,,0.00,,2013-03-26 20:12:00,
2013-03-26 15:22:00,64.0,23.0,30.38,NW,315,1.0,4.0,21,0.00,,,0.00,,2013-03-26 20:22:00,
2013-03-26 15:32:00,65.0,25.0,30.38,NE,53,1.0,4.0,22,0.00,,,0.00,,2013-03-26 20:32:00,
2013-03-26 15:42:00,65.0,25.0,30.38,NE,53,1.0,4.0,22,0.00,,,0.00,,2013-03-26 20:42:00,
2013-03-26 15:52:00,64.0,23.0,30.37,NNW,348,1.0,5.0,21,0.00,,,0.00,,2013-03-26 20:52:00,
2013-03-26 16:02:00,64.0,26.0,30.37,NNE,32,2.0,7.0,24,0.00,,,0.00,,2013-03-26 21:02:00,
2013-03-26 16:12:00,64.0,26.0,30.37,NNE,32,2.0,7.0,24,0.00,,,0.00,,2013-03-26 21:12:00,
2013-03-26 16:22:00,63.0,22.0,30.37,North,5,1.0,4.0,21,0.00,,,0.00,,2013-03-26 21:22:00,
2013-03-26 16:32:00,63.0,22.0,30.37,North,5,1.0,4.0,21,0.00,,,0.00,,2013-03-26 21:32:00,
2013-03-26 16:42:00,63.0,22.0,30.37,North,5,1.0,4.0,21,0.00,,,0.00,,2013-03-26 21:42:00,
2013-03-26 16:52:00,63.0,22.0,30.37,North,5,1.0,4.0,21,0.00,,,0.00,,2013-03-26 21:52:00,
2013-03-26 17:22:00,62.0,23.0,30.35,NW,313,0.0,3.0,22,0.00,,,0.00,,2013-03-26 22:22:00,
2013-03-26 17:33:00,62.0,23.0,30.35,NW,313,0.0,3.0,22,0.00,,,0.00,,2013-03-26 22:33:00,
2013-03-26 17:42:00,62.0,23.0,30.35,NW,313,0.0,3.0,22,0.00,,,0.00,,2013-03-26 22:42:00,
2013-03-26 17:52:00,62.0,23.0,30.35,NW,313,0.0,3.0,22,0.00,,,0.00,,2013-03-26 22:52:00,
2013-03-26 18:22:00,60.0,23.0,30.35,NW,323,0.0,3.0,24,0.00,,,0.00,,2013-03-26 23:22:00,
2013-03-26 18:32:00,59.0,22.0,30.35,NE,48,0.0,2.0,24,0.00,,,0.00,,2013-03-26 23:32:00,
2013-03-26 18:43:00,59.0,22.0,30.35,NE,48,0.0,2.0,24,0.00,,,0.00,,2013-03-26 23:43:00,
2013-03-26 18:53:00,59.0,22.0,30.34,NW,323,0.0,2.0,24,0.00,,,0.00,,2013-03-26 23:53:00,
2013-03-26 19:02:00,58.0,22.0,30.35,NE,55,0.0,4.0,25,0.00,,,0.00,,2013-03-27 00:02:00,
2013-03-26 19:12:00,58.0,22.0,30.35,NE,55,0.0,4.0,25,0.00,,,0.00,,2013-03-27 00:12:00,
2013-03-26 19:22:00,58.0,28.0,30.35,WNW,303,0.0,2.0,31,0.00,,,0.00,,2013-03-27 00:22:00,
2013-03-26 19:32:00,57.0,29.0,30.34,WNW,303,0.0,1.0,34,0.00,,,0.00,,2013-03-27 00:32:00,
2013-03-26 19:42:00,57.0,29.0,30.34,WNW,303,0.0,1.0,34,0.00,,,0.00,,2013-03-27 00:42:00,
2013-03-26 19:52:00,54.0,30.0,30.35,WNW,303,0.0,0.0,39,0.00,,,0.00,,2013-03-27 00:52:00,
2013-03-26 20:02:00,53.0,31.0,30.35,WNW,303,0.0,0.0,43,0.00,,,0.00,,2013-03-27 01:02:00,
2013-03-26 20:12:00,53.0,31.0,30.35,WNW,303,0.0,0.0,43,0.00,,,0.00,,2013-03-27 01:12:00,
2013-03-26 20:22:00,50.0,32.0,30.35,WNW,303,0.0,0.0,50,0.00,,,0.00,,2013-03-27 01:22:00,
2013-03-26 20:33:00,49.0,33.0,30.35,WNW,303,0.0,0.0,53,0.00,,,0.00,,2013-03-27 01:33:00,
2013-03-26 20:42:00,49.0,33.0,30.35,WNW,303,0.0,0.0,53,0.00,,,0.00,,2013-03-27 01:42:00,
2013-03-26 20:53:00,47.0,33.0,30.36,WNW,303,0.0,0.0,57,0.00,,,0.00,,2013-03-27 01:53:00,
2013-03-26 21:02:00,47.0,33.0,30.36,WNW,303,0.0,0.0,58,0.00,,,0.00,,2013-03-27 02:02:00,
2013-03-26 21:12:00,47.0,33.0,30.36,WNW,303,0.0,0.0,58,0.00,,,0.00,,2013-03-27 02:12:00,
2013-03-26 21:22:00,45.0,33.0,30.36,WNW,303,0.0,0.0,63,0.00,,,0.00,,2013-03-27 02:22:00,
2013-03-26 21:32:00,44.0,33.0,30.37,WNW,303,0.0,0.0,65,0.00,,,0.00,,2013-03-27 02:32:00,
2013-03-26 21:42:00,44.0,33.0,30.37,WNW,303,0.0,0.0,65,0.00,,,0.00,,2013-03-27 02:42:00,
2013-03-26 21:53:00,43.0,33.0,30.37,WNW,303,0.0,0.0,67,0.00,,,0.00,,2013-03-27 02:53:00,
2013-03-26 22:02:00,43.0,34.0,30.37,WNW,303,0.0,0.0,69,0.00,,,0.00,,2013-03-27 03:02:00,
2013-03-26 22:12:00,43.0,34.0,30.37,WNW,303,0.0,0.0,69,0.00,,,0.00,,2013-03-27 03:12:00,
2013-03-26 22:22:00,42.0,33.0,30.38,WNW,303,0.0,0.0,70,0.00,,,0.00,,2013-03-27 03:22:00,
2013-03-26 22:33:00,42.0,34.0,30.38,WNW,303,0.0,0.0,72,0.00,,,0.00,,2013-03-27 03:33:00,
2013-03-26 22:42:00,42.0,34.0,30.38,WNW,303,0.0,0.0,72,0.00,,,0.00,,2013-03-27 03:42:00,
2013-03-26 22:53:00,41.0,34.0,30.38,WNW,303,0.0,0.0,75,0.00,,,0.00,,2013-03-27 03:53:00,
2013-03-26 23:02:00,41.0,34.0,30.38,WNW,303,0.0,0.0,76,0.00,,,0.00,,2013-03-27 04:02:00,
2013-03-26 23:13:00,41.0,34.0,30.38,WNW,303,0.0,0.0,76,0.00,,,0.00,,2013-03-27 04:13:00,
2013-03-26 23:23:00,40.0,34.0,30.38,WNW,303,0.0,0.0,78,0.00,,,0.00,,2013-03-27 04:23:00,
2013-03-26 23:33:00,39.0,33.0,30.38,WNW,303,0.0,0.0,79,0.00,,,0.00,,2013-03-27 04:33:00,
2013-03-26 23:42:00,39.0,33.0,30.38,WNW,303,0.0,0.0,79,0.00,,,0.00,,2013-03-27 04:42:00,
2013-03-26 23:52:00,39.0,34.0,30.39,NW,311,0.0,0.0,81,0.00,,,0.00,,2013-03-27 04:52:00,